sensor_id;sensor_type;location;lat;lon;timestamp;P1;durP1;ratioP1;P2;durP2;ratioP2
85769;SDS011;76210;41.986;21.462;2024-03-02T00:01:56;23.88;;;15.60;;
85769;SDS011;76210;41.986;21.462;2024-03-02T00:04:21;18.58;;;13.55;;
85769;SDS011;76210;41.986;21.462;2024-03-02T00:06:47;16.23;;;12.07;;
85769;SDS011;76210;41.986;21.462;2024-03-02T00:09:12;19.42;;;13.80;;
85769;SDS011;76210;41.986;21.462;2024-03-02T00:11:39;21.50;;;15.45;;
85769;SDS011;76210;41.986;21.462;2024-03-02T00:14:05;20.83;;;14.95;;
85769;SDS011;76210;41.986;21.462;2024-03-02T00:16:30;19.75;;;14.85;;
85769;SDS011;76210;41.986;21.462;2024-03-02T00:18:56;23.10;;;16.88;;
85769;SDS011;76210;41.986;21.462;2024-03-02T00:21:26;20.70;;;15.98;;
85769;SDS011;76210;41.986;21.462;2024-03-02T00:23:52;36.25;;;22.70;;
85769;SDS011;76210;41.986;21.462;2024-03-02T00:26:18;24.02;;;16.58;;
85769;SDS011;76210;41.986;21.462;2024-03-02T00:28:44;30.70;;;20.35;;
85769;SDS011;76210;41.986;21.462;2024-03-02T00:33:45;20.10;;;14.05;;
85769;SDS011;76210;41.986;21.462;2024-03-02T00:36:12;27.40;;;18.30;;
85769;SDS011;76210;41.986;21.462;2024-03-02T00:38:47;31.02;;;21.77;;
85769;SDS011;76210;41.986;21.462;2024-03-02T00:41:17;27.58;;;19.17;;
85769;SDS011;76210;41.986;21.462;2024-03-02T00:43:45;19.70;;;13.65;;
85769;SDS011;76210;41.986;21.462;2024-03-02T00:46:19;20.70;;;16.05;;
85769;SDS011;76210;41.986;21.462;2024-03-02T00:48:55;24.95;;;18.02;;
85769;SDS011;76210;41.986;21.462;2024-03-02T00:51:20;25.23;;;18.33;;
85769;SDS011;76210;41.986;21.462;2024-03-02T00:53:46;24.13;;;18.38;;
85769;SDS011;76210;41.986;21.462;2024-03-02T00:56:12;20.98;;;15.52;;
85769;SDS011;76210;41.986;21.462;2024-03-02T00:58:38;19.38;;;15.48;;
85769;SDS011;76210;41.986;21.462;2024-03-02T01:01:03;27.50;;;18.67;;
85769;SDS011;76210;41.986;21.462;2024-03-02T01:03:29;30.05;;;21.30;;
85769;SDS011;76210;41.986;21.462;2024-03-02T01:05:54;19.17;;;13.45;;
85769;SDS011;76210;41.986;21.462;2024-03-02T01:08:20;28.87;;;18.93;;
85769;SDS011;76210;41.986;21.462;2024-03-02T01:10:45;16.58;;;12.50;;
85769;SDS011;76210;41.986;21.462;2024-03-02T01:13:10;17.55;;;13.02;;
85769;SDS011;76210;41.986;21.462;2024-03-02T01:15:35;33.28;;;21.48;;
85769;SDS011;76210;41.986;21.462;2024-03-02T01:18:01;22.80;;;15.52;;
85769;SDS011;76210;41.986;21.462;2024-03-02T01:20:26;21.85;;;14.70;;
85769;SDS011;76210;41.986;21.462;2024-03-02T01:22:52;18.33;;;13.35;;
85769;SDS011;76210;41.986;21.462;2024-03-02T01:25:18;17.17;;;12.52;;
85769;SDS011;76210;41.986;21.462;2024-03-02T01:27:43;16.45;;;12.55;;
85769;SDS011;76210;41.986;21.462;2024-03-02T01:30:09;15.63;;;11.40;;
85769;SDS011;76210;41.986;21.462;2024-03-02T01:32:34;28.17;;;19.13;;
85769;SDS011;76210;41.986;21.462;2024-03-02T01:34:59;29.60;;;18.77;;
85769;SDS011;76210;41.986;21.462;2024-03-02T01:37:24;18.37;;;13.73;;
85769;SDS011;76210;41.986;21.462;2024-03-02T01:39:50;20.30;;;14.17;;
85769;SDS011;76210;41.986;21.462;2024-03-02T01:42:15;28.80;;;18.98;;
85769;SDS011;76210;41.986;21.462;2024-03-02T01:44:40;25.98;;;16.73;;
85769;SDS011;76210;41.986;21.462;2024-03-02T01:47:06;28.25;;;18.17;;
85769;SDS011;76210;41.986;21.462;2024-03-02T01:49:31;23.33;;;15.60;;
85769;SDS011;76210;41.986;21.462;2024-03-02T01:51:59;27.48;;;18.17;;
85769;SDS011;76210;41.986;21.462;2024-03-02T01:54:24;31.05;;;20.45;;
85769;SDS011;76210;41.986;21.462;2024-03-02T01:56:49;32.60;;;19.40;;
85769;SDS011;76210;41.986;21.462;2024-03-02T01:59:14;25.65;;;17.45;;
85769;SDS011;76210;41.986;21.462;2024-03-02T02:01:40;24.60;;;16.67;;
85769;SDS011;76210;41.986;21.462;2024-03-02T02:04:05;26.35;;;17.65;;
85769;SDS011;76210;41.986;21.462;2024-03-02T02:06:31;22.38;;;15.48;;
85769;SDS011;76210;41.986;21.462;2024-03-02T02:08:57;26.05;;;16.65;;
85769;SDS011;76210;41.986;21.462;2024-03-02T02:11:22;28.33;;;18.85;;
85769;SDS011;76210;41.986;21.462;2024-03-02T02:13:47;16.58;;;12.30;;
85769;SDS011;76210;41.986;21.462;2024-03-02T02:16:13;28.45;;;17.80;;
85769;SDS011;76210;41.986;21.462;2024-03-02T02:18:38;21.60;;;13.35;;
85769;SDS011;76210;41.986;21.462;2024-03-02T02:21:03;33.70;;;21.77;;
85769;SDS011;76210;41.986;21.462;2024-03-02T02:23:29;31.65;;;20.55;;
85769;SDS011;76210;41.986;21.462;2024-03-02T02:25:54;21.52;;;15.00;;
85769;SDS011;76210;41.986;21.462;2024-03-02T02:28:19;21.35;;;14.90;;
85769;SDS011;76210;41.986;21.462;2024-03-02T02:30:45;22.90;;;15.60;;
85769;SDS011;76210;41.986;21.462;2024-03-02T02:33:10;23.63;;;15.45;;
85769;SDS011;76210;41.986;21.462;2024-03-02T02:35:35;29.48;;;17.95;;
85769;SDS011;76210;41.986;21.462;2024-03-02T02:38:00;19.83;;;13.85;;
85769;SDS011;76210;41.986;21.462;2024-03-02T02:40:27;33.03;;;20.08;;
85769;SDS011;76210;41.986;21.462;2024-03-02T02:42:55;30.88;;;20.40;;
85769;SDS011;76210;41.986;21.462;2024-03-02T02:45:21;24.27;;;16.52;;
85769;SDS011;76210;41.986;21.462;2024-03-02T02:47:46;18.65;;;12.88;;
85769;SDS011;76210;41.986;21.462;2024-03-02T02:50:12;35.65;;;22.63;;
85769;SDS011;76210;41.986;21.462;2024-03-02T02:52:38;24.20;;;16.33;;
85769;SDS011;76210;41.986;21.462;2024-03-02T02:55:05;22.10;;;15.23;;
85769;SDS011;76210;41.986;21.462;2024-03-02T02:57:31;27.15;;;18.77;;
85769;SDS011;76210;41.986;21.462;2024-03-02T03:00:00;18.30;;;13.38;;
85769;SDS011;76210;41.986;21.462;2024-03-02T03:02:27;18.95;;;13.55;;
85769;SDS011;76210;41.986;21.462;2024-03-02T03:04:52;18.75;;;13.43;;
85769;SDS011;76210;41.986;21.462;2024-03-02T03:07:18;19.98;;;13.73;;
85769;SDS011;76210;41.986;21.462;2024-03-02T03:09:43;18.60;;;13.47;;
85769;SDS011;76210;41.986;21.462;2024-03-02T03:12:08;11.63;;;9.00;;
85769;SDS011;76210;41.986;21.462;2024-03-02T03:14:34;22.13;;;14.07;;
85769;SDS011;76210;41.986;21.462;2024-03-02T03:16:59;20.70;;;13.82;;
85769;SDS011;76210;41.986;21.462;2024-03-02T03:19:24;16.70;;;10.88;;
85769;SDS011;76210;41.986;21.462;2024-03-02T03:21:49;18.83;;;13.23;;
85769;SDS011;76210;41.986;21.462;2024-03-02T03:24:15;19.58;;;12.55;;
85769;SDS011;76210;41.986;21.462;2024-03-02T03:26:40;23.60;;;14.60;;
85769;SDS011;76210;41.986;21.462;2024-03-02T03:29:05;23.93;;;15.70;;
85769;SDS011;76210;41.986;21.462;2024-03-02T03:31:31;18.10;;;13.57;;
85769;SDS011;76210;41.986;21.462;2024-03-02T03:33:56;25.43;;;16.10;;
85769;SDS011;76210;41.986;21.462;2024-03-02T03:36:22;19.13;;;12.88;;
85769;SDS011;76210;41.986;21.462;2024-03-02T03:38:48;22.80;;;14.75;;
85769;SDS011;76210;41.986;21.462;2024-03-02T03:41:13;16.05;;;11.68;;
85769;SDS011;76210;41.986;21.462;2024-03-02T03:43:38;30.38;;;19.13;;
85769;SDS011;76210;41.986;21.462;2024-03-02T03:46:04;24.50;;;16.02;;
85769;SDS011;76210;41.986;21.462;2024-03-02T03:48:29;20.57;;;13.57;;
85769;SDS011;76210;41.986;21.462;2024-03-02T03:50:55;31.83;;;19.30;;
85769;SDS011;76210;41.986;21.462;2024-03-02T03:53:21;23.27;;;14.75;;
85769;SDS011;76210;41.986;21.462;2024-03-02T03:55:47;14.52;;;11.30;;
85769;SDS011;76210;41.986;21.462;2024-03-02T03:58:14;27.38;;;18.23;;
85769;SDS011;76210;41.986;21.462;2024-03-02T04:00:39;27.55;;;18.25;;
85769;SDS011;76210;41.986;21.462;2024-03-02T04:03:04;29.00;;;21.30;;
85769;SDS011;76210;41.986;21.462;2024-03-02T04:05:30;34.43;;;23.97;;
85769;SDS011;76210;41.986;21.462;2024-03-02T04:07:55;34.07;;;24.20;;
85769;SDS011;76210;41.986;21.462;2024-03-02T04:10:20;35.53;;;24.63;;
85769;SDS011;76210;41.986;21.462;2024-03-02T04:12:46;42.70;;;29.17;;
85769;SDS011;76210;41.986;21.462;2024-03-02T04:15:11;35.08;;;24.58;;
85769;SDS011;76210;41.986;21.462;2024-03-02T04:17:36;45.25;;;29.88;;
85769;SDS011;76210;41.986;21.462;2024-03-02T04:20:02;42.00;;;28.60;;
85769;SDS011;76210;41.986;21.462;2024-03-02T04:22:29;40.83;;;27.85;;
85769;SDS011;76210;41.986;21.462;2024-03-02T04:24:55;41.30;;;27.37;;
85769;SDS011;76210;41.986;21.462;2024-03-02T04:27:20;34.30;;;24.67;;
85769;SDS011;76210;41.986;21.462;2024-03-02T04:29:46;39.42;;;26.20;;
85769;SDS011;76210;41.986;21.462;2024-03-02T04:32:11;36.17;;;24.70;;
85769;SDS011;76210;41.986;21.462;2024-03-02T04:34:36;41.03;;;28.23;;
85769;SDS011;76210;41.986;21.462;2024-03-02T04:37:01;43.28;;;26.83;;
85769;SDS011;76210;41.986;21.462;2024-03-02T04:39:27;36.10;;;23.43;;
85769;SDS011;76210;41.986;21.462;2024-03-02T04:41:52;32.58;;;22.00;;
85769;SDS011;76210;41.986;21.462;2024-03-02T04:44:17;27.00;;;18.90;;
85769;SDS011;76210;41.986;21.462;2024-03-02T04:46:43;20.03;;;14.17;;
85769;SDS011;76210;41.986;21.462;2024-03-02T04:49:08;22.57;;;15.97;;
85769;SDS011;76210;41.986;21.462;2024-03-02T04:51:33;20.17;;;16.23;;
85769;SDS011;76210;41.986;21.462;2024-03-02T04:53:59;26.98;;;18.75;;
85769;SDS011;76210;41.986;21.462;2024-03-02T04:56:24;29.67;;;21.05;;
85769;SDS011;76210;41.986;21.462;2024-03-02T04:59:08;28.83;;;20.02;;
85769;SDS011;76210;41.986;21.462;2024-03-02T05:01:33;27.92;;;19.58;;
85769;SDS011;76210;41.986;21.462;2024-03-02T05:03:58;30.00;;;20.30;;
85769;SDS011;76210;41.986;21.462;2024-03-02T05:06:24;37.07;;;23.63;;
85769;SDS011;76210;41.986;21.462;2024-03-02T05:08:49;37.53;;;24.20;;
85769;SDS011;76210;41.986;21.462;2024-03-02T05:11:14;28.83;;;19.05;;
85769;SDS011;76210;41.986;21.462;2024-03-02T05:14:15;33.35;;;22.35;;
85769;SDS011;76210;41.986;21.462;2024-03-02T05:16:40;33.15;;;21.77;;
85769;SDS011;76210;41.986;21.462;2024-03-02T05:19:06;35.45;;;21.65;;
85769;SDS011;76210;41.986;21.462;2024-03-02T05:21:32;37.60;;;24.90;;
85769;SDS011;76210;41.986;21.462;2024-03-02T05:23:57;32.35;;;23.17;;
85769;SDS011;76210;41.986;21.462;2024-03-02T05:26:22;41.78;;;27.95;;
85769;SDS011;76210;41.986;21.462;2024-03-02T05:28:48;44.50;;;29.13;;
85769;SDS011;76210;41.986;21.462;2024-03-02T05:31:16;44.30;;;29.38;;
85769;SDS011;76210;41.986;21.462;2024-03-02T05:33:41;50.25;;;31.23;;
85769;SDS011;76210;41.986;21.462;2024-03-02T05:36:07;47.10;;;30.83;;
85769;SDS011;76210;41.986;21.462;2024-03-02T05:38:34;43.17;;;27.10;;
85769;SDS011;76210;41.986;21.462;2024-03-02T05:40:59;45.05;;;29.08;;
85769;SDS011;76210;41.986;21.462;2024-03-02T05:43:24;42.53;;;29.20;;
85769;SDS011;76210;41.986;21.462;2024-03-02T05:45:50;43.80;;;29.10;;
85769;SDS011;76210;41.986;21.462;2024-03-02T05:48:15;48.20;;;30.23;;
85769;SDS011;76210;41.986;21.462;2024-03-02T05:50:40;49.97;;;32.07;;
85769;SDS011;76210;41.986;21.462;2024-03-02T05:53:05;40.72;;;28.17;;
85769;SDS011;76210;41.986;21.462;2024-03-02T05:55:31;46.13;;;31.17;;
85769;SDS011;76210;41.986;21.462;2024-03-02T05:57:56;46.63;;;30.45;;
85769;SDS011;76210;41.986;21.462;2024-03-02T06:00:44;45.42;;;28.90;;
85769;SDS011;76210;41.986;21.462;2024-03-02T06:03:09;43.78;;;29.90;;
85769;SDS011;76210;41.986;21.462;2024-03-02T06:05:35;41.75;;;28.40;;
85769;SDS011;76210;41.986;21.462;2024-03-02T06:08:01;42.47;;;28.70;;
85769;SDS011;76210;41.986;21.462;2024-03-02T06:10:26;41.10;;;28.03;;
85769;SDS011;76210;41.986;21.462;2024-03-02T06:12:51;38.37;;;25.90;;
85769;SDS011;76210;41.986;21.462;2024-03-02T06:15:16;43.93;;;28.70;;
85769;SDS011;76210;41.986;21.462;2024-03-02T06:17:42;40.80;;;27.88;;
85769;SDS011;76210;41.986;21.462;2024-03-02T06:20:07;37.67;;;25.73;;
85769;SDS011;76210;41.986;21.462;2024-03-02T06:22:33;38.60;;;26.23;;
85769;SDS011;76210;41.986;21.462;2024-03-02T06:24:58;34.88;;;23.77;;
85769;SDS011;76210;41.986;21.462;2024-03-02T06:27:24;38.13;;;24.93;;
85769;SDS011;76210;41.986;21.462;2024-03-02T06:29:49;37.93;;;25.73;;
85769;SDS011;76210;41.986;21.462;2024-03-02T06:32:14;36.77;;;25.47;;
85769;SDS011;76210;41.986;21.462;2024-03-02T06:34:39;37.10;;;26.50;;
85769;SDS011;76210;41.986;21.462;2024-03-02T06:37:05;38.40;;;26.93;;
85769;SDS011;76210;41.986;21.462;2024-03-02T06:39:30;30.85;;;22.20;;
85769;SDS011;76210;41.986;21.462;2024-03-02T06:41:56;32.35;;;23.00;;
85769;SDS011;76210;41.986;21.462;2024-03-02T06:44:21;31.20;;;22.57;;
85769;SDS011;76210;41.986;21.462;2024-03-02T06:46:46;34.07;;;23.03;;
85769;SDS011;76210;41.986;21.462;2024-03-02T06:49:12;30.98;;;21.67;;
85769;SDS011;76210;41.986;21.462;2024-03-02T06:51:37;31.38;;;22.70;;
85769;SDS011;76210;41.986;21.462;2024-03-02T06:54:02;32.67;;;23.42;;
85769;SDS011;76210;41.986;21.462;2024-03-02T06:56:28;37.97;;;24.92;;
85769;SDS011;76210;41.986;21.462;2024-03-02T06:58:53;26.33;;;20.67;;
85769;SDS011;76210;41.986;21.462;2024-03-02T07:01:19;50.90;;;34.77;;
85769;SDS011;76210;41.986;21.462;2024-03-02T07:03:45;31.77;;;24.67;;
85769;SDS011;76210;41.986;21.462;2024-03-02T07:06:10;33.13;;;25.85;;
85769;SDS011;76210;41.986;21.462;2024-03-02T07:08:35;31.60;;;23.97;;
85769;SDS011;76210;41.986;21.462;2024-03-02T07:11:01;30.98;;;22.77;;
85769;SDS011;76210;41.986;21.462;2024-03-02T07:13:26;28.58;;;21.75;;
85769;SDS011;76210;41.986;21.462;2024-03-02T07:15:52;24.45;;;18.77;;
85769;SDS011;76210;41.986;21.462;2024-03-02T07:18:31;22.50;;;18.38;;
85769;SDS011;76210;41.986;21.462;2024-03-02T07:20:58;23.38;;;19.33;;
85769;SDS011;76210;41.986;21.462;2024-03-02T07:23:25;22.65;;;17.80;;
85769;SDS011;76210;41.986;21.462;2024-03-02T07:25:52;22.92;;;18.23;;
85769;SDS011;76210;41.986;21.462;2024-03-02T07:28:19;31.38;;;23.52;;
85769;SDS011;76210;41.986;21.462;2024-03-02T07:30:45;22.13;;;16.73;;
85769;SDS011;76210;41.986;21.462;2024-03-02T07:33:10;19.17;;;17.10;;
85769;SDS011;76210;41.986;21.462;2024-03-02T07:35:35;20.17;;;15.88;;
85769;SDS011;76210;41.986;21.462;2024-03-02T07:38:01;17.83;;;15.10;;
85769;SDS011;76210;41.986;21.462;2024-03-02T07:40:26;15.07;;;13.13;;
85769;SDS011;76210;41.986;21.462;2024-03-02T07:42:52;11.85;;;10.63;;
85769;SDS011;76210;41.986;21.462;2024-03-02T07:45:17;11.85;;;9.95;;
85769;SDS011;76210;41.986;21.462;2024-03-02T07:47:42;33.50;;;24.00;;
85769;SDS011;76210;41.986;21.462;2024-03-02T07:50:08;12.68;;;11.38;;
85769;SDS011;76210;41.986;21.462;2024-03-02T07:52:34;17.88;;;15.38;;
85769;SDS011;76210;41.986;21.462;2024-03-02T07:54:59;16.65;;;13.43;;
85769;SDS011;76210;41.986;21.462;2024-03-02T07:57:25;14.38;;;11.73;;
85769;SDS011;76210;41.986;21.462;2024-03-02T07:59:50;11.63;;;10.15;;
85769;SDS011;76210;41.986;21.462;2024-03-02T08:02:15;12.93;;;8.98;;
85769;SDS011;76210;41.986;21.462;2024-03-02T08:04:41;12.38;;;7.65;;
85769;SDS011;76210;41.986;21.462;2024-03-02T08:07:06;9.48;;;7.70;;
85769;SDS011;76210;41.986;21.462;2024-03-02T08:09:31;15.83;;;7.83;;
85769;SDS011;76210;41.986;21.462;2024-03-02T08:11:57;11.48;;;7.75;;
85769;SDS011;76210;41.986;21.462;2024-03-02T08:14:23;12.98;;;9.93;;
85769;SDS011;76210;41.986;21.462;2024-03-02T08:16:48;10.50;;;8.27;;
85769;SDS011;76210;41.986;21.462;2024-03-02T08:19:13;13.17;;;8.60;;
85769;SDS011;76210;41.986;21.462;2024-03-02T08:21:39;9.50;;;8.23;;
85769;SDS011;76210;41.986;21.462;2024-03-02T08:24:04;10.77;;;8.60;;
85769;SDS011;76210;41.986;21.462;2024-03-02T08:26:29;18.58;;;13.57;;
85769;SDS011;76210;41.986;21.462;2024-03-02T08:28:56;9.77;;;8.40;;
85769;SDS011;76210;41.986;21.462;2024-03-02T08:31:22;12.02;;;8.95;;
85769;SDS011;76210;41.986;21.462;2024-03-02T08:33:47;11.77;;;9.77;;
85769;SDS011;76210;41.986;21.462;2024-03-02T08:36:12;12.10;;;9.47;;
85769;SDS011;76210;41.986;21.462;2024-03-02T08:38:38;13.93;;;10.02;;
85769;SDS011;76210;41.986;21.462;2024-03-02T08:41:04;11.65;;;9.48;;
85769;SDS011;76210;41.986;21.462;2024-03-02T08:43:29;23.58;;;17.45;;
85769;SDS011;76210;41.986;21.462;2024-03-02T08:45:54;19.50;;;15.32;;
85769;SDS011;76210;41.986;21.462;2024-03-02T08:48:20;24.60;;;17.63;;
85769;SDS011;76210;41.986;21.462;2024-03-02T08:50:46;17.55;;;12.88;;
85769;SDS011;76210;41.986;21.462;2024-03-02T08:53:11;19.80;;;14.18;;
85769;SDS011;76210;41.986;21.462;2024-03-02T08:55:36;18.85;;;14.68;;
85769;SDS011;76210;41.986;21.462;2024-03-02T08:58:02;20.63;;;16.30;;
85769;SDS011;76210;41.986;21.462;2024-03-02T09:00:27;23.63;;;16.98;;
85769;SDS011;76210;41.986;21.462;2024-03-02T09:02:52;21.08;;;16.05;;
85769;SDS011;76210;41.986;21.462;2024-03-02T09:05:18;17.67;;;14.23;;
85769;SDS011;76210;41.986;21.462;2024-03-02T09:07:43;19.30;;;14.73;;
85769;SDS011;76210;41.986;21.462;2024-03-02T09:10:08;19.00;;;14.17;;
85769;SDS011;76210;41.986;21.462;2024-03-02T09:12:34;17.00;;;15.00;;
85769;SDS011;76210;41.986;21.462;2024-03-02T09:15:00;17.30;;;15.43;;
85769;SDS011;76210;41.986;21.462;2024-03-02T09:17:25;19.13;;;14.95;;
85769;SDS011;76210;41.986;21.462;2024-03-02T09:19:50;17.42;;;14.73;;
85769;SDS011;76210;41.986;21.462;2024-03-02T09:22:19;18.20;;;14.77;;
85769;SDS011;76210;41.986;21.462;2024-03-02T09:24:44;30.98;;;24.27;;
85769;SDS011;76210;41.986;21.462;2024-03-02T09:27:10;17.52;;;12.68;;
85769;SDS011;76210;41.986;21.462;2024-03-02T09:29:35;33.85;;;24.95;;
85769;SDS011;76210;41.986;21.462;2024-03-02T09:32:01;16.08;;;13.63;;
85769;SDS011;76210;41.986;21.462;2024-03-02T09:34:26;16.27;;;14.52;;
85769;SDS011;76210;41.986;21.462;2024-03-02T09:36:51;19.27;;;15.03;;
85769;SDS011;76210;41.986;21.462;2024-03-02T09:39:17;15.50;;;13.77;;
85769;SDS011;76210;41.986;21.462;2024-03-02T09:41:43;23.55;;;18.25;;
85769;SDS011;76210;41.986;21.462;2024-03-02T09:44:09;17.88;;;14.10;;
85769;SDS011;76210;41.986;21.462;2024-03-02T09:46:34;28.02;;;21.48;;
85769;SDS011;76210;41.986;21.462;2024-03-02T09:49:01;22.48;;;17.58;;
85769;SDS011;76210;41.986;21.462;2024-03-02T09:51:27;18.60;;;14.32;;
85769;SDS011;76210;41.986;21.462;2024-03-02T09:53:52;34.10;;;25.30;;
85769;SDS011;76210;41.986;21.462;2024-03-02T09:56:19;18.35;;;13.48;;
85769;SDS011;76210;41.986;21.462;2024-03-02T09:58:44;19.27;;;14.13;;
85769;SDS011;76210;41.986;21.462;2024-03-02T10:01:09;17.08;;;13.60;;
85769;SDS011;76210;41.986;21.462;2024-03-02T10:06:21;15.88;;;13.15;;
85769;SDS011;76210;41.986;21.462;2024-03-02T10:08:47;15.55;;;12.45;;
85769;SDS011;76210;41.986;21.462;2024-03-02T10:14:14;16.70;;;11.77;;
85769;SDS011;76210;41.986;21.462;2024-03-02T10:16:40;16.75;;;12.30;;
85769;SDS011;76210;41.986;21.462;2024-03-02T10:19:22;15.20;;;11.98;;
85769;SDS011;76210;41.986;21.462;2024-03-02T10:21:48;14.52;;;12.05;;
85769;SDS011;76210;41.986;21.462;2024-03-02T10:24:17;15.05;;;12.45;;
85769;SDS011;76210;41.986;21.462;2024-03-02T10:26:42;14.18;;;9.50;;
85769;SDS011;76210;41.986;21.462;2024-03-02T10:29:08;19.27;;;13.63;;
85769;SDS011;76210;41.986;21.462;2024-03-02T10:31:35;13.50;;;11.02;;
85769;SDS011;76210;41.986;21.462;2024-03-02T10:34:01;16.23;;;11.38;;
85769;SDS011;76210;41.986;21.462;2024-03-02T10:36:27;14.35;;;12.63;;
85769;SDS011;76210;41.986;21.462;2024-03-02T10:38:53;16.50;;;11.57;;
85769;SDS011;76210;41.986;21.462;2024-03-02T10:41:24;16.85;;;10.73;;
85769;SDS011;76210;41.986;21.462;2024-03-02T10:43:52;16.42;;;12.77;;
85769;SDS011;76210;41.986;21.462;2024-03-02T10:46:19;14.57;;;11.07;;
85769;SDS011;76210;41.986;21.462;2024-03-02T10:48:45;16.73;;;10.85;;
85769;SDS011;76210;41.986;21.462;2024-03-02T10:51:11;12.00;;;9.48;;
85769;SDS011;76210;41.986;21.462;2024-03-02T10:53:36;16.67;;;11.93;;
85769;SDS011;76210;41.986;21.462;2024-03-02T10:56:01;15.18;;;11.40;;
85769;SDS011;76210;41.986;21.462;2024-03-02T10:58:31;26.00;;;16.95;;
85769;SDS011;76210;41.986;21.462;2024-03-02T11:00:57;36.88;;;20.83;;
85769;SDS011;76210;41.986;21.462;2024-03-02T11:03:23;15.02;;;10.57;;
85769;SDS011;76210;41.986;21.462;2024-03-02T11:05:48;18.98;;;11.20;;
85769;SDS011;76210;41.986;21.462;2024-03-02T11:08:16;14.48;;;9.93;;
85769;SDS011;76210;41.986;21.462;2024-03-02T11:10:48;14.73;;;9.10;;
85769;SDS011;76210;41.986;21.462;2024-03-02T11:13:16;15.75;;;10.52;;
85769;SDS011;76210;41.986;21.462;2024-03-02T11:15:45;14.80;;;9.75;;
85769;SDS011;76210;41.986;21.462;2024-03-02T11:18:10;12.50;;;9.25;;
85769;SDS011;76210;41.986;21.462;2024-03-02T11:20:40;16.25;;;9.98;;
85769;SDS011;76210;41.986;21.462;2024-03-02T11:23:06;14.20;;;9.80;;
85769;SDS011;76210;41.986;21.462;2024-03-02T11:25:32;14.93;;;9.68;;
85769;SDS011;76210;41.986;21.462;2024-03-02T11:28:06;15.52;;;9.27;;
85769;SDS011;76210;41.986;21.462;2024-03-02T11:33:03;18.40;;;12.50;;
85769;SDS011;76210;41.986;21.462;2024-03-02T11:38:00;12.23;;;8.80;;
85769;SDS011;76210;41.986;21.462;2024-03-02T11:40:27;12.45;;;9.07;;
85769;SDS011;76210;41.986;21.462;2024-03-02T11:42:53;12.82;;;8.93;;
85769;SDS011;76210;41.986;21.462;2024-03-02T11:45:25;14.38;;;9.70;;
85769;SDS011;76210;41.986;21.462;2024-03-02T11:47:50;14.25;;;8.63;;
85769;SDS011;76210;41.986;21.462;2024-03-02T11:50:28;22.10;;;13.07;;
85769;SDS011;76210;41.986;21.462;2024-03-02T11:52:53;11.40;;;7.55;;
85769;SDS011;76210;41.986;21.462;2024-03-02T11:55:18;27.55;;;17.50;;
85769;SDS011;76210;41.986;21.462;2024-03-02T11:57:44;12.23;;;7.40;;
85769;SDS011;76210;41.986;21.462;2024-03-02T12:00:17;13.20;;;7.65;;
85769;SDS011;76210;41.986;21.462;2024-03-02T12:02:42;12.00;;;8.07;;
85769;SDS011;76210;41.986;21.462;2024-03-02T12:05:12;10.32;;;7.22;;
85769;SDS011;76210;41.986;21.462;2024-03-02T12:07:38;11.98;;;8.73;;
85769;SDS011;76210;41.986;21.462;2024-03-02T12:10:03;12.57;;;7.68;;
85769;SDS011;76210;41.986;21.462;2024-03-02T12:12:28;26.38;;;16.65;;
85769;SDS011;76210;41.986;21.462;2024-03-02T12:14:54;21.67;;;13.57;;
85769;SDS011;76210;41.986;21.462;2024-03-02T12:17:20;24.88;;;16.13;;
85769;SDS011;76210;41.986;21.462;2024-03-02T12:19:46;10.63;;;6.40;;
85769;SDS011;76210;41.986;21.462;2024-03-02T12:22:12;12.93;;;7.13;;
85769;SDS011;76210;41.986;21.462;2024-03-02T12:24:37;11.70;;;7.07;;
85769;SDS011;76210;41.986;21.462;2024-03-02T12:27:03;11.85;;;7.30;;
85769;SDS011;76210;41.986;21.462;2024-03-02T12:29:28;18.30;;;10.05;;
85769;SDS011;76210;41.986;21.462;2024-03-02T12:31:53;13.05;;;6.47;;
85769;SDS011;76210;41.986;21.462;2024-03-02T12:34:19;10.82;;;6.60;;
85769;SDS011;76210;41.986;21.462;2024-03-02T12:36:47;13.32;;;8.73;;
85769;SDS011;76210;41.986;21.462;2024-03-02T12:39:17;10.75;;;5.70;;
85769;SDS011;76210;41.986;21.462;2024-03-02T12:41:43;12.52;;;7.07;;
85769;SDS011;76210;41.986;21.462;2024-03-02T12:44:08;12.25;;;7.38;;
85769;SDS011;76210;41.986;21.462;2024-03-02T12:46:34;13.93;;;6.32;;
85769;SDS011;76210;41.986;21.462;2024-03-02T12:49:10;18.08;;;8.43;;
85769;SDS011;76210;41.986;21.462;2024-03-02T12:51:36;19.02;;;10.82;;
85769;SDS011;76210;41.986;21.462;2024-03-02T12:54:01;10.95;;;6.25;;
85769;SDS011;76210;41.986;21.462;2024-03-02T12:56:28;20.77;;;12.60;;
85769;SDS011;76210;41.986;21.462;2024-03-02T12:58:54;10.70;;;6.07;;
85769;SDS011;76210;41.986;21.462;2024-03-02T13:01:19;17.90;;;8.93;;
85769;SDS011;76210;41.986;21.462;2024-03-02T13:03:52;11.57;;;5.38;;
85769;SDS011;76210;41.986;21.462;2024-03-02T13:06:18;16.60;;;7.28;;
85769;SDS011;76210;41.986;21.462;2024-03-02T13:08:44;8.45;;;4.82;;
85769;SDS011;76210;41.986;21.462;2024-03-02T13:11:10;8.68;;;5.13;;
85769;SDS011;76210;41.986;21.462;2024-03-02T13:13:35;9.10;;;4.65;;
85769;SDS011;76210;41.986;21.462;2024-03-02T13:16:00;8.60;;;5.00;;
85769;SDS011;76210;41.986;21.462;2024-03-02T13:18:26;10.27;;;5.20;;
85769;SDS011;76210;41.986;21.462;2024-03-02T13:20:52;10.52;;;5.25;;
85769;SDS011;76210;41.986;21.462;2024-03-02T13:23:17;9.30;;;5.30;;
85769;SDS011;76210;41.986;21.462;2024-03-02T13:25:42;8.65;;;4.95;;
85769;SDS011;76210;41.986;21.462;2024-03-02T13:28:08;8.98;;;4.60;;
85769;SDS011;76210;41.986;21.462;2024-03-02T13:30:33;11.80;;;5.70;;
85769;SDS011;76210;41.986;21.462;2024-03-02T13:32:59;8.57;;;4.45;;
85769;SDS011;76210;41.986;21.462;2024-03-02T13:35:24;21.63;;;11.90;;
85769;SDS011;76210;41.986;21.462;2024-03-02T13:37:49;12.00;;;7.32;;
85769;SDS011;76210;41.986;21.462;2024-03-02T13:40:15;12.75;;;5.93;;
85769;SDS011;76210;41.986;21.462;2024-03-02T13:42:45;10.60;;;5.00;;
85769;SDS011;76210;41.986;21.462;2024-03-02T13:45:11;12.35;;;4.93;;
85769;SDS011;76210;41.986;21.462;2024-03-02T13:47:36;10.55;;;4.68;;
85769;SDS011;76210;41.986;21.462;2024-03-02T13:50:02;11.37;;;6.43;;
85769;SDS011;76210;41.986;21.462;2024-03-02T13:52:27;7.57;;;4.20;;
85769;SDS011;76210;41.986;21.462;2024-03-02T13:54:53;8.18;;;4.55;;
85769;SDS011;76210;41.986;21.462;2024-03-02T13:57:18;14.82;;;6.07;;
85769;SDS011;76210;41.986;21.462;2024-03-02T13:59:45;11.90;;;6.78;;
85769;SDS011;76210;41.986;21.462;2024-03-02T14:02:10;17.23;;;8.18;;
85769;SDS011;76210;41.986;21.462;2024-03-02T14:04:36;7.88;;;4.55;;
85769;SDS011;76210;41.986;21.462;2024-03-02T14:07:02;8.23;;;4.28;;
85769;SDS011;76210;41.986;21.462;2024-03-02T14:09:27;10.55;;;4.47;;
85769;SDS011;76210;41.986;21.462;2024-03-02T14:11:53;11.05;;;4.47;;
85769;SDS011;76210;41.986;21.462;2024-03-02T14:14:19;8.88;;;4.35;;
85769;SDS011;76210;41.986;21.462;2024-03-02T14:16:44;6.15;;;4.30;;
85769;SDS011;76210;41.986;21.462;2024-03-02T14:19:10;13.63;;;4.25;;
85769;SDS011;76210;41.986;21.462;2024-03-02T14:21:36;7.93;;;3.78;;